sensor_id;sensor_type;location;lat;lon;timestamp;pressure;altitude;pressure_sealevel;temperature;humidity
46382;BME280;66809;52.974;-2.514;2023-03-30T00:01:49;990.4792043982209;;;10.5207175393969;44.254085497808674
46382;BME280;66809;52.974;-2.514;2023-03-30T00:03:48;990.4658273034413;;;10.513660668413278;44.211707033527055
46382;BME280;66809;52.974;-2.514;2023-03-30T00:05:49;990.4501958499812;;;10.505150237493849;44.17255481386396
46382;BME280;66809;52.974;-2.514;2023-03-30T00:07:48;990.4332986444864;;;10.494233868452161;44.14319319367847
46382;BME280;66809;52.974;-2.514;2023-03-30T00:09:48;990.4149131914293;;;10.48876586878883;44.112945311940514
46382;BME280;66809;52.974;-2.514;2023-03-30T00:11:49;990.3949352332332;;;10.465163566950206;44.07926532748201
46382;BME280;66809;52.974;-2.514;2023-03-30T00:13:48;990.3765747615325;;;10.431387546951234;44.04979669115956
46382;BME280;66809;52.974;-2.514;2023-03-30T00:15:48;990.357777635026;;;10.412642509961643;44.021987176320266
46382;BME280;66809;52.974;-2.514;2023-03-30T00:17:49;990.3405515092403;;;10.393242109252661;43.99495863240046
46382;BME280;66809;52.974;-2.514;2023-03-30T00:19:49;990.3223699357131;;;10.36876598057945;43.966561234450175
46382;BME280;66809;52.974;-2.514;2023-03-30T00:21:49;990.3030624089355;;;10.35118882938189;43.93424997861969
46382;BME280;66809;52.974;-2.514;2023-03-30T00:23:48;990.2851568166128;;;10.33697883599429;43.90487224164908
46382;BME280;66809;52.974;-2.514;2023-03-30T00:25:49;990.2657772667505;;;10.315024204752985;43.87548190170504
46382;BME280;66809;52.974;-2.514;2023-03-30T00:27:49;990.2479783946762;;;10.29851499766107;43.853634047671434
46382;BME280;66809;52.974;-2.514;2023-03-30T00:29:48;990.229897077644;;;10.285120897613952;43.83030758240634
46382;BME280;66809;52.974;-2.514;2023-03-30T00:31:49;990.2109512688094;;;10.275987541285925;43.81941072486655
46382;BME280;66809;52.974;-2.514;2023-03-30T00:33:49;990.192671497556;;;10.266549657531192;43.8180874333136
46382;BME280;66809;52.974;-2.514;2023-03-30T00:35:51;990.1770515201068;;;10.245165238990579;43.823900441298036
46382;BME280;66809;52.974;-2.514;2023-03-30T00:37:48;990.1619254386003;;;10.215497592305708;43.83578946684793
46382;BME280;66809;52.974;-2.514;2023-03-30T00:39:48;990.1470028388162;;;10.20710163139091;43.850995475113464
46382;BME280;66809;52.974;-2.514;2023-03-30T00:41:49;990.1333662866929;;;10.198873730068577;43.87089536795704
46382;BME280;66809;52.974;-2.514;2023-03-30T00:44:06;990.1206682625642;;;10.170909698344058;43.89429700410893
46382;BME280;66809;52.974;-2.514;2023-03-30T00:45:49;990.1093743183187;;;10.145489443213012;43.92355744916845
46382;BME280;66809;52.974;-2.514;2023-03-30T00:47:53;990.0951494698182;;;10.108621329636703;43.9604382154312
46382;BME280;66809;52.974;-2.514;2023-03-30T00:49:48;990.0810839635141;;;10.08314227262723;43.99498366259406
46382;BME280;66809;52.974;-2.514;2023-03-30T00:51:48;990.0689702001133;;;10.053231943685613;44.03295331490461
46382;BME280;66809;52.974;-2.514;2023-03-30T00:53:50;990.0565162233427;;;10.03882856845926;44.078761570178614
46382;BME280;66809;52.974;-2.514;2023-03-30T00:55:51;990.0429150667761;;;10.020567749123762;44.12253310629974
46382;BME280;66809;52.974;-2.514;2023-03-30T00:57:49;990.0302467610157;;;9.989713424127935;44.16698390264814
46382;BME280;66809;52.974;-2.514;2023-03-30T00:59:49;990.0174159666981;;;9.964951472483067;44.21692373679257
46382;BME280;66809;52.974;-2.514;2023-03-30T01:01:49;990.0055976146056;;;9.939514412681628;44.272055651504154
46382;BME280;66809;52.974;-2.514;2023-03-30T01:03:49;989.9926101439531;;;9.92337089737332;44.324859363686464
46382;BME280;66809;52.974;-2.514;2023-03-30T01:05:51;989.9809329000941;;;9.910092471364406;44.370535382230706
46382;BME280;66809;52.974;-2.514;2023-03-30T01:07:49;989.9695014565624;;;9.891160620091382;44.40585778627105
46382;BME280;66809;52.974;-2.514;2023-03-30T01:09:49;989.9594280132224;;;9.880141439476256;44.43669394945337
46382;BME280;66809;52.974;-2.514;2023-03-30T01:11:48;989.9504818454084;;;9.872754887515951;44.467645443618565
46382;BME280;66809;52.974;-2.514;2023-03-30T01:13:52;989.9426331899831;;;9.871435503417167;44.492919812973746
46382;BME280;66809;52.974;-2.514;2023-03-30T01:15:58;989.9371596419302;;;9.870634089795136;44.51194074873357
46382;BME280;66809;52.974;-2.514;2023-03-30T01:18:07;989.9316989303861;;;9.861154521015745;44.535962123110174
46382;BME280;66809;52.974;-2.514;2023-03-30T01:20:13;989.9265868377568;;;9.862907324867079;44.55734566596794
46382;BME280;66809;52.974;-2.514;2023-03-30T01:22:06;989.9209923679006;;;9.854326770228996;44.578929532110706
46382;BME280;66809;52.974;-2.514;2023-03-30T01:24:38;989.9140814501588;;;9.843000801694947;44.59993482905641
46382;BME280;66809;52.974;-2.514;2023-03-30T01:26:57;989.9080610567942;;;9.835380140184194;44.61762590223305
46382;BME280;66809;52.974;-2.514;2023-03-30T01:28:07;989.900260300123;;;9.833210352961272;44.63149875367407
46382;BME280;66809;52.974;-2.514;2023-03-30T01:30:07;989.8928704625293;;;9.829891543291692;44.64421225437038
46382;BME280;66809;52.974;-2.514;2023-03-30T01:32:04;989.8830899507032;;;9.827549428201888;44.640992945124935
46382;BME280;66809;52.974;-2.514;2023-03-30T01:34:00;989.8747196535963;;;9.829904053791344;44.63251012448299
46382;BME280;66809;52.974;-2.514;2023-03-30T01:36:02;989.8676153271529;;;9.839112688817345;44.61170656916919
46382;BME280;66809;52.974;-2.514;2023-03-30T01:38:05;989.8593380836697;;;9.852362702107634;44.58789200430193
46382;BME280;66809;52.974;-2.514;2023-03-30T01:39:54;989.8516213628071;;;9.855432640516707;44.55167846667855
46382;BME280;66809;52.974;-2.514;2023-03-30T01:41:55;989.843638836557;;;9.859759925414883;44.50265696715317
46382;BME280;66809;52.974;-2.514;2023-03-30T01:43:53;989.8381544415278;;;9.869930464990285;44.457556546090004
46382;BME280;66809;52.974;-2.514;2023-03-30T01:45:51;989.8301613718414;;;9.886593719319619;44.40268133933357
46382;BME280;66809;52.974;-2.514;2023-03-30T01:47:51;989.8243878811917;;;9.907010620079438;44.34977127880365
46382;BME280;66809;52.974;-2.514;2023-03-30T01:49:54;989.8188239197573;;;9.926486499119777;44.29822149675711
46382;BME280;66809;52.974;-2.514;2023-03-30T01:51:56;989.8126700495699;;;9.9502453643816;44.24304949135316
46382;BME280;66809;52.974;-2.514;2023-03-30T01:53:54;989.8082302808227;;;9.96114186568815;44.18737661063073
46382;BME280;66809;52.974;-2.514;2023-03-30T01:55:52;989.8054147164543;;;9.975122823576706;44.13422862631399
46382;BME280;66809;52.974;-2.514;2023-03-30T01:57:51;989.8030858442756;;;9.990414495972171;44.07951923156233
46382;BME280;66809;52.974;-2.514;2023-03-30T01:59:53;989.8015448804305;;;9.999958276883913;44.0217732160536
46382;BME280;66809;52.974;-2.514;2023-03-30T02:01:50;989.8000626154136;;;10.01168113349181;43.96354334022815
46382;BME280;66809;52.974;-2.514;2023-03-30T02:03:52;989.7990310063972;;;10.022578553049977;43.906851352853536
46382;BME280;66809;52.974;-2.514;2023-03-30T02:05:53;989.7996703793146;;;10.02225291394593;43.8582511002116
46382;BME280;66809;52.974;-2.514;2023-03-30T02:07:52;989.8012668489922;;;10.023438512946193;43.81733980894231
46382;BME280;66809;52.974;-2.514;2023-03-30T02:09:52;989.8027794358944;;;10.013347694381592;43.79156621406154
46382;BME280;66809;52.974;-2.514;2023-03-30T02:11:50;989.8060027509114;;;10.006287962097828;43.76705526060834
46382;BME280;66809;52.974;-2.514;2023-03-30T02:13:50;989.8064963544828;;;9.997976328095762;43.7456680630235
46382;BME280;66809;52.974;-2.514;2023-03-30T02:15:52;989.805094561479;;;9.982037697520978;43.7329750367319
46382;BME280;66809;52.974;-2.514;2023-03-30T02:17:49;989.803176605669;;;9.971986834693052;43.71695773450006
46382;BME280;66809;52.974;-2.514;2023-03-30T02:19:50;989.801429857979;;;9.95493912880569;43.6949651846605
46382;BME280;66809;52.974;-2.514;2023-03-30T02:21:49;989.7994187195258;;;9.93820866245766;43.6790203877494
46382;BME280;66809;52.974;-2.514;2023-03-30T02:23:53;989.7997249737673;;;9.913336651540684;43.67105768251813
46382;BME280;66809;52.974;-2.514;2023-03-30T02:25:49;989.7995244135084;;;9.883431842961908;43.669624402906116
46382;BME280;66809;52.974;-2.514;2023-03-30T02:27:48;989.79926286272;;;9.860358787639282;43.66975714042835
46382;BME280;66809;52.974;-2.514;2023-03-30T02:29:48;989.8005909365428;;;9.833033385662803;43.66569226671408
46382;BME280;66809;52.974;-2.514;2023-03-30T02:31:53;989.8059666936368;;;9.810419463883054;43.65889478141456
46382;BME280;66809;52.974;-2.514;2023-03-30T02:34:03;989.8144945530765;;;9.78902678755109;43.65043840466471
46382;BME280;66809;52.974;-2.514;2023-03-30T02:36:02;989.8194222202584;;;9.753066161226753;43.6357149445753
46382;BME280;66809;52.974;-2.514;2023-03-30T02:38:05;989.8283550180745;;;9.71915358948397;43.62215047680708
46382;BME280;66809;52.974;-2.514;2023-03-30T02:39:57;989.8375571998193;;;9.692894136348059;43.6178671706516
46382;BME280;66809;52.974;-2.514;2023-03-30T02:42:02;989.8449426295202;;;9.666737531439061;43.60208085963545
46382;BME280;66809;52.974;-2.514;2023-03-30T02:43:55;989.8558065517065;;;9.640846859761648;43.56048033255268
46382;BME280;66809;52.974;-2.514;2023-03-30T02:45:52;989.8681888254645;;;9.6114135166394;43.52191043553665
46382;BME280;66809;52.974;-2.514;2023-03-30T02:47:59;989.8803307060565;;;9.57789886378682;43.48471084463377
46382;BME280;66809;52.974;-2.514;2023-03-30T02:49:54;989.8922176787233;;;9.542720617642447;43.452590232630094
46382;BME280;66809;52.974;-2.514;2023-03-30T02:51:50;989.9036073601842;;;9.506399714439254;43.41705267537683
46382;BME280;66809;52.974;-2.514;2023-03-30T02:53:55;989.9150507612668;;;9.462499303469281;43.387473782235496
46382;BME280;66809;52.974;-2.514;2023-03-30T02:55:56;989.9283983826564;;;9.423573812037777;43.353793149487345
46382;BME280;66809;52.974;-2.514;2023-03-30T02:57:58;989.9414890159889;;;9.383287199281419;43.32939641157713
46382;BME280;66809;52.974;-2.514;2023-03-30T02:59:53;989.9533636942004;;;9.349199218435848;43.300611355677226
46382;BME280;66809;52.974;-2.514;2023-03-30T03:01:51;989.9663816340022;;;9.31026330671204;43.27582139750011
46382;BME280;66809;52.974;-2.514;2023-03-30T03:03:51;989.9814983716816;;;9.265246411564744;43.25552327657117
46382;BME280;66809;52.974;-2.514;2023-03-30T03:05:49;989.9976497823523;;;9.238366323017654;43.230052547777284
46382;BME280;66809;52.974;-2.514;2023-03-30T03:07:49;990.0148338842583;;;9.200438768755252;43.193346328222574
46382;BME280;66809;52.974;-2.514;2023-03-30T03:09:49;990.0316604973601;;;9.171678731836282;43.15146052194051
46382;BME280;66809;52.974;-2.514;2023-03-30T03:11:49;990.0480789014341;;;9.139112619884232;43.105368996514166
46382;BME280;66809;52.974;-2.514;2023-03-30T03:13:49;990.0669952462936;;;9.109997713690344;43.06581138753787
46382;BME280;66809;52.974;-2.514;2023-03-30T03:15:49;990.0872640033657;;;9.082739634153144;43.02625642660266
46382;BME280;66809;52.974;-2.514;2023-03-30T03:17:48;990.1093915007206;;;9.044621808876537;42.98434782325281
46382;BME280;66809;52.974;-2.514;2023-03-30T03:19:50;990.1332945636095;;;9.008822925472423;42.950958661939104
46382;BME280;66809;52.974;-2.514;2023-03-30T03:21:48;990.1553127994947;;;8.983051999723536;42.91112650005305
46382;BME280;66809;52.974;-2.514;2023-03-30T03:23:49;990.178923241459;;;8.950629800395026;42.86496902183673
46382;BME280;66809;52.974;-2.514;2023-03-30T03:25:48;990.2019272019245;;;8.936573229927516;42.8090695137782
46382;BME280;66809;52.974;-2.514;2023-03-30T03:27:49;990.2264651007024;;;8.919676803583519;42.75188835867948
46382;BME280;66809;52.974;-2.514;2023-03-30T03:29:49;990.250929625114;;;8.905811467584819;42.69909530817113
46382;BME280;66809;52.974;-2.514;2023-03-30T03:31:48;990.2756059790515;;;8.888251258879952;42.65402353603965
46382;BME280;66809;52.974;-2.514;2023-03-30T03:33:49;990.2976378751521;;;8.863993737282089;42.60436145531255
46382;BME280;66809;52.974;-2.514;2023-03-30T03:35:49;990.3215680049652;;;8.844805578890982;42.56820894890653
46382;BME280;66809;52.974;-2.514;2023-03-30T03:37:48;990.3444649648734;;;8.819978761854117;42.53185977877509
46382;BME280;66809;52.974;-2.514;2023-03-30T03:39:49;990.3679318959186;;;8.8042912666117;42.48692594468492
46382;BME280;66809;52.974;-2.514;2023-03-30T03:41:49;990.3952854008697;;;8.788858768764817;42.460462739453455
46382;BME280;66809;52.974;-2.514;2023-03-30T03:43:48;990.4189508718229;;;8.779173209546734;42.44614498394811
46382;BME280;66809;52.974;-2.514;2023-03-30T03:45:49;990.4436050619491;;;8.769696754629852;42.43770695879328
46382;BME280;66809;52.974;-2.514;2023-03-30T03:47:49;990.4703865193518;;;8.76218636523458;42.42370189891938
46382;BME280;66809;52.974;-2.514;2023-03-30T03:49:49;990.4978340811532;;;8.760236068164238;42.40500773070417
46382;BME280;66809;52.974;-2.514;2023-03-30T03:51:48;990.5260661010136;;;8.754700143570961;42.39267035746315
46382;BME280;66809;52.974;-2.514;2023-03-30T03:53:49;990.5548300915611;;;8.753290547185786;42.38286877293934
46382;BME280;66809;52.974;-2.514;2023-03-30T03:55:49;990.582618153001;;;8.753348329512516;42.38215916204468
46382;BME280;66809;52.974;-2.514;2023-03-30T03:57:48;990.6085282155052;;;8.754111875928428;42.37236567108343
46382;BME280;66809;52.974;-2.514;2023-03-30T03:59:49;990.6353401169431;;;8.74484749229803;42.37195041921332
46382;BME280;66809;52.974;-2.514;2023-03-30T04:01:49;990.662621904698;;;8.751139515278219;42.368130045452624
46382;BME280;66809;52.974;-2.514;2023-03-30T04:03:49;990.6894732029364;;;8.76313645694496;42.36920901399365
46382;BME280;66809;52.974;-2.514;2023-03-30T04:05:48;990.7136798951299;;;8.757163706924635;42.37107722901665
46382;BME280;66809;52.974;-2.514;2023-03-30T04:07:49;990.7389248711094;;;8.758332600646206;42.38068008935655
46382;BME280;66809;52.974;-2.514;2023-03-30T04:09:49;990.7638446254374;;;8.766347080655041;42.37934847082517
46382;BME280;66809;52.974;-2.514;2023-03-30T04:11:48;990.7883921348017;;;8.784579279965591;42.37870788912246
46382;BME280;66809;52.974;-2.514;2023-03-30T04:13:49;990.811299567535;;;8.799813979647585;42.370848233300485
46382;BME280;66809;52.974;-2.514;2023-03-30T04:15:48;990.8348435527062;;;8.80381631965863;42.3596649874147
46382;BME280;66809;52.974;-2.514;2023-03-30T04:17:49;990.8584728340858;;;8.81096443551541;42.35219185690184
46382;BME280;66809;52.974;-2.514;2023-03-30T04:19:48;990.8807118398407;;;8.820406291416578;42.340910979758405
46382;BME280;66809;52.974;-2.514;2023-03-30T04:21:49;990.9057859004374;;;8.82434046242824;42.32953836124658
46382;BME280;66809;52.974;-2.514;2023-03-30T04:23:48;990.9293611792797;;;8.847000504612433;42.311025688778265
46382;BME280;66809;52.974;-2.514;2023-03-30T04:25:48;990.9536625333956;;;8.859865883011004;42.29836108365785
46382;BME280;66809;52.974;-2.514;2023-03-30T04:27:49;990.9776396117128;;;8.867756339827283;42.28052110413533
46382;BME280;66809;52.974;-2.514;2023-03-30T04:29:49;991.0013687618612;;;8.882863030129663;42.26658502710362
46382;BME280;66809;52.974;-2.514;2023-03-30T04:31:49;991.0235820736855;;;8.898833126731152;42.255963199383146
46382;BME280;66809;52.974;-2.514;2023-03-30T04:33:48;991.0470351877717;;;8.900018831427554;42.256576676186015
46382;BME280;66809;52.974;-2.514;2023-03-30T04:35:49;991.0700688954569;;;8.918887596643296;42.25524245917499
46382;BME280;66809;52.974;-2.514;2023-03-30T04:37:49;991.0916731812722;;;8.935414215895621;42.246586520909055
46382;BME280;66809;52.974;-2.514;2023-03-30T04:39:48;991.1130064160702;;;8.950750724715437;42.24104990899564
46382;BME280;66809;52.974;-2.514;2023-03-30T04:41:49;991.1329572804223;;;8.957017616522915;42.23579948151853
46382;BME280;66809;52.974;-2.514;2023-03-30T04:43:49;991.1534350618222;;;8.966192547525356;42.24021584869583
46382;BME280;66809;52.974;-2.514;2023-03-30T04:45:48;991.1737780463468;;;8.968787792512096;42.24678110659395
46382;BME280;66809;52.974;-2.514;2023-03-30T04:47:49;991.1935912802851;;;8.988486364714781;42.25422986825881
46382;BME280;66809;52.974;-2.514;2023-03-30T04:49:49;991.2132662303242;;;8.994546172700865;42.263243702756235
46382;BME280;66809;52.974;-2.514;2023-03-30T04:51:48;991.2344543668187;;;9.01747109448008;42.27431575133131
46382;BME280;66809;52.974;-2.514;2023-03-30T04:53:48;991.2547412079473;;;9.036577123808652;42.275923738046316
46382;BME280;66809;52.974;-2.514;2023-03-30T04:55:50;991.272907347104;;;9.059226777241031;42.27440322645057
46382;BME280;66809;52.974;-2.514;2023-03-30T04:57:48;991.29333634839;;;9.067730590541414;42.269754396415735
46382;BME280;66809;52.974;-2.514;2023-03-30T04:59:49;991.3125561941044;;;9.08965768059078;42.26060588816278
46382;BME280;66809;52.974;-2.514;2023-03-30T05:01:49;991.3289272654916;;;9.095472877175045;42.25389881000744
46382;BME280;66809;52.974;-2.514;2023-03-30T05:03:48;991.3425878947775;;;9.099800931483337;42.23516989273503
46382;BME280;66809;52.974;-2.514;2023-03-30T05:05:49;991.3572663213938;;;9.116434799538975;42.212131588665066
46382;BME280;66809;52.974;-2.514;2023-03-30T05:07:49;991.3704242709488;;;9.136270768187035;42.19055511177616
46382;BME280;66809;52.974;-2.514;2023-03-30T05:09:48;991.3844752058742;;;9.143950156273347;42.1766940311807
46382;BME280;66809;52.974;-2.514;2023-03-30T05:11:49;991.3988270361538;;;9.139716619969517;42.166346588534765
46382;BME280;66809;52.974;-2.514;2023-03-30T05:13:50;991.4153859906946;;;9.135785554817682;42.15267653176089
46382;BME280;66809;52.974;-2.514;2023-03-30T05:15:52;991.4316176811398;;;9.15567833472172;42.141934725702484
46382;BME280;66809;52.974;-2.514;2023-03-30T05:17:48;991.4481773604391;;;9.164820619565061;42.128160606456504
46382;BME280;66809;52.974;-2.514;2023-03-30T05:19:49;991.4665371380684;;;9.17354376005607;42.119749084627266
46382;BME280;66809;52.974;-2.514;2023-03-30T05:21:49;991.4850643368591;;;9.168258927605498;42.11788135618506
46382;BME280;66809;52.974;-2.514;2023-03-30T05:23:48;991.5020532784404;;;9.172895756876942;42.11855502081112
46382;BME280;66809;52.974;-2.514;2023-03-30T05:25:49;991.517769942309;;;9.169549775389866;42.11609705734632
46382;BME280;66809;52.974;-2.514;2023-03-30T05:27:49;991.5335704850457;;;9.173102756423852;42.119798221768015
46382;BME280;66809;52.974;-2.514;2023-03-30T05:29:48;991.5508453483637;;;9.16380379834457;42.11724876066241
46382;BME280;66809;52.974;-2.514;2023-03-30T05:31:49;991.5676387679486;;;9.14740623418285;42.10669147996716
46382;BME280;66809;52.974;-2.514;2023-03-30T05:33:49;991.5828918653248;;;9.160075334692158;42.083043378156134
46382;BME280;66809;52.974;-2.514;2023-03-30T05:35:49;991.5980360797736;;;9.150968663099047;42.0585129751466
46382;BME280;66809;52.974;-2.514;2023-03-30T05:37:48;991.6125898958936;;;9.148615160967807;42.03359120894519
46382;BME280;66809;52.974;-2.514;2023-03-30T05:39:49;991.6266093117999;;;9.148731836999586;41.99889329814855
46382;BME280;66809;52.974;-2.514;2023-03-30T05:41:48;991.6403872989463;;;9.153385579399208;41.95940199906883
46382;BME280;66809;52.974;-2.514;2023-03-30T05:43:49;991.6539373648183;;;9.14984847128199;41.91159611190912
46382;BME280;66809;52.974;-2.514;2023-03-30T05:45:49;991.6676501084802;;;9.158854441544857;41.85596602638439
46382;BME280;66809;52.974;-2.514;2023-03-30T05:47:48;991.6809197207592;;;9.153941429221593;41.794465075229674
46382;BME280;66809;52.974;-2.514;2023-03-30T05:49:49;991.6938745010139;;;9.154109598327127;41.7289520127966
46382;BME280;66809;52.974;-2.514;2023-03-30T05:51:49;991.7059192332413;;;9.148196755314173;41.66373032661533
46382;BME280;66809;52.974;-2.514;2023-03-30T05:53:48;991.7185174974562;;;9.151076751443261;41.60075561532464
46382;BME280;66809;52.974;-2.514;2023-03-30T05:55:49;991.7326453099118;;;9.144769017263389;41.53318128372129
46382;BME280;66809;52.974;-2.514;2023-03-30T05:57:49;991.7465904051788;;;9.158186976349127;41.47146970430126
46382;BME280;66809;52.974;-2.514;2023-03-30T05:59:48;991.7613381210609;;;9.161397608091741;41.411027666588794
46382;BME280;66809;52.974;-2.514;2023-03-30T06:01:49;991.7760665781204;;;9.166488264939858;41.345890152111835
46382;BME280;66809;52.974;-2.514;2023-03-30T06:03:49;991.7936475086303;;;9.174015499617122;41.28554226189312
46382;BME280;66809;52.974;-2.514;2023-03-30T06:05:48;991.8119852068525;;;9.179267815794109;41.22685341955162
46382;BME280;66809;52.974;-2.514;2023-03-30T06:07:48;991.8292768362227;;;9.179755266629227;41.165233939408054
46382;BME280;66809;52.974;-2.514;2023-03-30T06:09:49;991.8464293237982;;;9.183245184337308;41.10136591612598
46382;BME280;66809;52.974;-2.514;2023-03-30T06:11:49;991.8632748572581;;;9.196983512648035;41.04052452209689
46382;BME280;66809;52.974;-2.514;2023-03-30T06:13:48;991.8770442863962;;;9.220029236744923;40.97095816516058
46382;BME280;66809;52.974;-2.514;2023-03-30T06:15:49;991.8890422651713;;;9.231844621079372;40.8994330319792
46382;BME280;66809;52.974;-2.514;2023-03-30T06:17:49;991.899964918099;;;9.261208655048607;40.82036078395674
46382;BME280;66809;52.974;-2.514;2023-03-30T06:19:48;991.9100407268827;;;9.277686234257184;40.742755120049864
46382;BME280;66809;52.974;-2.514;2023-03-30T06:21:49;991.9198987019148;;;9.312045136240446;40.65299658510729
46382;BME280;66809;52.974;-2.514;2023-03-30T06:23:48;991.9294311228094;;;9.343193555145032;40.554796001036344
46382;BME280;66809;52.974;-2.514;2023-03-30T06:25:49;991.9390389136946;;;9.370324863308209;40.45404985537896
46382;BME280;66809;52.974;-2.514;2023-03-30T06:27:49;991.9474573974293;;;9.393918909894266;40.34930744589285
46382;BME280;66809;52.974;-2.514;2023-03-30T06:29:48;991.9556216099538;;;9.426821261882539;40.24936761532081
46382;BME280;66809;52.974;-2.514;2023-03-30T06:31:49;991.965176535408;;;9.468141329508635;40.16440822613847
46382;BME280;66809;52.974;-2.514;2023-03-30T06:33:49;991.9757685355049;;;9.494357764887456;40.0931333110942
46382;BME280;66809;52.974;-2.514;2023-03-30T06:35:50;991.9888302798764;;;9.52196894318318;40.02047907881292
46382;BME280;66809;52.974;-2.514;2023-03-30T06:37:48;992.0018300482842;;;9.56659197415908;39.95663295320366
46382;BME280;66809;52.974;-2.514;2023-03-30T06:39:49;992.015315857852;;;9.599528945400323;39.90608758635093
46382;BME280;66809;52.974;-2.514;2023-03-30T06:41:48;992.0292850440871;;;9.625796797490882;39.86365451781662
46382;BME280;66809;52.974;-2.514;2023-03-30T06:43:48;992.0422544543504;;;9.653044767532954;39.82757159069317
46382;BME280;66809;52.974;-2.514;2023-03-30T06:45:49;992.0524660035912;;;9.682665085694705;39.79127607050595
46382;BME280;66809;52.974;-2.514;2023-03-30T06:47:48;992.0632391804172;;;9.71122675822007;39.75732331066035
46382;BME280;66809;52.974;-2.514;2023-03-30T06:49:49;992.0744308355897;;;9.753867046539309;39.72473873111541
46382;BME280;66809;52.974;-2.514;2023-03-30T06:51:48;992.0854183546832;;;9.774437481206837;39.695003240599725
46382;BME280;66809;52.974;-2.514;2023-03-30T06:53:48;992.0950606645463;;;9.807621179691392;39.664089963927154
46382;BME280;66809;52.974;-2.514;2023-03-30T06:55:50;992.1038239564699;;;9.836275285634066;39.635615784288326
46382;BME280;66809;52.974;-2.514;2023-03-30T06:57:48;992.1127194783686;;;9.864707988444847;39.61106282637996
46382;BME280;66809;52.974;-2.514;2023-03-30T06:59:48;992.1202723828075;;;9.898989410788223;39.584937018469255
46382;BME280;66809;52.974;-2.514;2023-03-30T07:01:49;992.1295140064091;;;9.936155671094934;39.561942721882296
46382;BME280;66809;52.974;-2.514;2023-03-30T07:03:51;992.1376911986537;;;9.965045041320568;39.540034210820714
46382;BME280;66809;52.974;-2.514;2023-03-30T07:05:49;992.1459334599402;;;9.999984792532349;39.526158695559985
46382;BME280;66809;52.974;-2.514;2023-03-30T07:07:48;992.154359074923;;;10.038711803619897;39.509635983044205
46382;BME280;66809;52.974;-2.514;2023-03-30T07:09:49;992.161733731378;;;10.075413932100425;39.495666773573205
46382;BME280;66809;52.974;-2.514;2023-03-30T07:11:49;992.16938404242;;;10.105542738009666;39.48229291006315
46382;BME280;66809;52.974;-2.514;2023-03-30T07:13:49;992.1785450555748;;;10.120165497643821;39.478228101767854
46382;BME280;66809;52.974;-2.514;2023-03-30T07:15:48;992.1889629086043;;;10.136306981663386;39.47514785257155
46382;BME280;66809;52.974;-2.514;2023-03-30T07:17:49;992.2001051289662;;;10.150779412820429;39.482752496661014